Time;durP1;ratioP1;P1;durP2;ratioP2;P2;SDS_P1;SDS_P2;PMS_P1;PMS_P2;Temp;Humidity;BMP_temperature;BMP_pressure;BME280_temperature;BME280_humidity;BME280_pressure;Samples;Min_cycle;Max_cycle;Signal;HPM_P1;HPM_P2
2022/06/08 00:00:45;;;;;;;0.10;0.10;;;;;;;21.36;48.24;100738.28;5142450;27;20326;-34
2022/06/08 00:03:19;;;;;;;0.10;0.10;;;;;;;21.35;48.36;100736.63;5139556;27;20085;-34
2022/06/08 00:05:45;;;;;;;0.10;0.10;;;;;;;21.35;48.37;100733.88;5141743;27;20082;-34
2022/06/08 00:08:11;;;;;;;0.20;0.20;;;;;;;21.35;48.39;100731.91;5139541;27;20047;-34
2022/06/08 00:10:36;;;;;;;0.10;0.10;;;;;;;21.35;48.28;100729.16;5142059;27;20088;-34
2022/06/08 00:13:02;;;;;;;0.10;0.10;;;;;;;21.36;48.40;100727.19;5141261;27;20049;-34
2022/06/08 00:15:28;;;;;;;0.10;0.10;;;;;;;21.36;48.31;100729.97;5139352;27;20089;-34
2022/06/08 00:17:54;;;;;;;0.20;0.20;;;;;;;21.34;48.54;100716.44;5138385;27;20047;-34
2022/06/08 00:20:19;;;;;;;0.10;0.10;;;;;;;21.34;48.47;100719.19;5125644;27;20058;-35
2022/06/08 00:22:45;;;;;;;0.10;0.10;;;;;;;21.34;48.48;100718.38;5138332;27;20054;-34
2022/06/08 00:25:12;;;;;;;0.10;0.10;;;;;;;21.35;48.41;100708.94;5138530;27;20062;-34
2022/06/08 00:27:38;;;;;;;0.10;0.10;;;;;;;21.35;48.46;100708.94;5142937;27;20038;-33
2022/06/08 00:30:06;;;;;;;0.10;0.10;;;;;;;21.35;48.40;100712.53;5137094;27;20039;-34
2022/06/08 00:32:31;;;;;;;0.10;0.10;;;;;;;21.35;48.36;100711.72;5135509;27;20078;-33
2022/06/08 00:34:57;;;;;;;0.10;0.10;;;;;;;21.34;48.30;100708.13;5138781;27;20087;-33
2022/06/08 00:37:24;;;;;;;0.10;0.10;;;;;;;21.35;48.40;100704.22;5139923;27;20096;-33
2022/06/08 00:39:49;;;;;;;0.10;0.10;;;;;;;21.34;48.47;100699.81;5138235;27;20070;-34
2022/06/08 00:42:16;;;;;;;0.10;0.10;;;;;;;21.34;48.37;100699.00;5139298;27;20183;-34
2022/06/08 00:44:46;;;;;;;0.10;0.10;;;;;;;21.34;48.31;100701.75;5137878;27;20043;-34
2022/06/08 00:47:15;;;;;;;0.10;0.10;;;;;;;21.33;48.39;100695.41;5119442;27;20078;-33
2022/06/08 00:49:45;;;;;;;0.10;0.10;;;;;;;21.33;48.47;100689.84;5138807;27;20446;-34
2022/06/08 00:52:12;;;;;;;0.10;0.10;;;;;;;21.33;48.34;100689.00;5138962;27;20466;-34
2022/06/08 00:54:40;;;;;;;0.10;0.10;;;;;;;21.33;48.28;100676.00;5122848;27;20078;-34
2022/06/08 00:57:20;;;;;;;0.10;0.10;;;;;;;21.34;48.37;100682.38;5137891;27;20093;-34
2022/06/08 00:59:49;;;;;;;0.10;0.10;;;;;;;21.34;48.40;100679.59;5141752;27;20101;-34
2022/06/08 01:02:15;;;;;;;0.10;0.10;;;;;;;21.33;48.35;100675.16;5138308;27;20063;-34
2022/06/08 01:04:41;;;;;;;0.10;0.10;;;;;;;21.32;48.33;100668.81;5117861;27;20054;-34
2022/06/08 01:07:07;;;;;;;0.10;0.10;;;;;;;21.33;48.19;100669.63;5137150;27;20492;-34
2022/06/08 01:09:36;;;;;;;0.10;0.10;;;;;;;21.33;48.25;100670.47;5140608;27;20138;-34
2022/06/08 01:12:20;;;;;;;0.10;0.10;;;;;;;21.32;48.33;100666.03;5133154;27;20043;-34
2022/06/08 01:14:47;;;;;;;0.10;0.10;;;;;;;21.33;48.40;100661.31;5140556;27;20047;-35
2022/06/08 01:17:16;;;;;;;0.10;0.10;;;;;;;21.33;48.50;100656.63;5138254;27;20450;-34
2022/06/08 01:19:45;;;;;;;0.10;0.10;;;;;;;21.33;48.21;100653.00;5138762;27;20138;-34
2022/06/08 01:22:13;;;;;;;0.10;0.10;;;;;;;21.33;48.30;100639.16;5137565;27;20497;-34
2022/06/08 01:24:39;;;;;;;0.10;0.10;;;;;;;21.33;48.56;100650.22;5138368;27;20076;-34
2022/06/08 01:27:30;;;;;;;0.10;0.10;;;;;;;21.31;48.36;100653.28;5140796;27;20055;-34
2022/06/08 01:30:24;;;;;;;0.10;0.10;;;;;;;21.32;48.44;100652.19;5121783;27;20070;-34
2022/06/08 01:33:29;;;;;;;0.10;0.10;;;;;;;21.32;48.35;100648.59;5125406;27;20093;-34
2022/06/08 01:36:25;;;;;;;0.10;0.10;;;;;;;21.31;48.31;100639.44;5122542;27;20105;-34
2022/06/08 01:42:02;;;;;;;0.10;0.10;;;;;;;21.35;48.30;100631.38;5167813;27;20468;-33
2022/06/08 01:50:51;;;;;;;0.10;0.10;;;;;;;21.32;48.21;100623.66;5164576;27;20217;-33
2022/06/08 01:53:30;;;;;;;0.10;0.10;;;;;;;21.32;48.48;100618.94;5165257;27;20158;-33
2022/06/08 01:56:00;;;;;;;0.10;0.10;;;;;;;21.31;48.32;100608.97;5164418;27;20074;-33
2022/06/08 01:58:42;;;;;;;0.10;0.10;;;;;;;21.32;48.37;100618.94;5142854;27;20542;-32
2022/06/08 02:01:34;;;;;;;0.10;0.10;;;;;;;21.30;48.27;100610.91;5161375;27;20245;-33
2022/06/08 02:04:16;;;;;;;0.10;0.10;;;;;;;21.30;48.28;100615.63;5148149;27;20043;-33
2022/06/08 02:07:22;;;;;;;0.10;0.10;;;;;;;21.30;48.37;100610.91;5130350;27;20606;-33
2022/06/08 02:09:54;;;;;;;0.10;0.10;;;;;;;21.30;48.36;100605.38;5139720;27;20070;-34
2022/06/08 02:12:19;;;;;;;0.10;0.10;;;;;;;21.30;48.36;100596.25;5165791;27;20138;-33
2022/06/08 02:15:08;;;;;;;0.13;0.13;;;;;;;21.30;48.40;100602.59;5157069;27;20517;-34
2022/06/08 02:17:42;;;;;;;0.10;0.10;;;;;;;21.30;48.21;100593.47;5157914;27;20079;-32
2022/06/08 02:20:17;;;;;;;0.10;0.10;;;;;;;21.30;48.43;100599.84;5162072;27;20070;-33
2022/06/08 02:22:50;;;;;;;0.10;0.10;;;;;;;21.30;48.26;100597.06;5164706;27;20093;-33
2022/06/08 02:25:21;;;;;;;0.10;0.10;;;;;;;21.30;48.34;100593.47;5166324;27;20093;-34
2022/06/08 02:27:55;;;;;;;0.10;0.10;;;;;;;21.30;48.44;100599.84;5157301;27;20216;-33
2022/06/08 02:30:24;;;;;;;0.10;0.10;;;;;;;21.31;48.28;100595.13;5163861;27;20096;-33
2022/06/08 02:35:50;;;;;;;0.10;0.10;;;;;;;21.29;48.29;100583.53;5146794;27;20065;-33
2022/06/08 02:38:17;;;;;;;0.20;0.20;;;;;;;21.28;48.47;100585.47;5143718;27;20070;-34
2022/06/08 02:40:46;;;;;;;0.10;0.10;;;;;;;21.30;48.50;100579.63;5156068;27;20484;-33
2022/06/08 02:43:16;;;;;;;0.10;0.10;;;;;;;21.29;48.38;100578.81;5162606;27;20078;-33
2022/06/08 02:45:44;;;;;;;0.10;0.10;;;;;;;21.29;48.25;100567.72;5158985;27;20046;-33
2022/06/08 02:48:13;;;;;;;0.10;0.10;;;;;;;21.29;48.38;100562.19;5141956;27;20074;-33
2022/06/08 02:50:50;;;;;;;0.10;0.10;;;;;;;21.28;48.44;100568.03;5143476;27;20124;-34
2022/06/08 02:56:13;;;;;;;0.10;0.10;;;;;;;21.29;48.32;100561.38;5183043;27;20647;-34
2022/06/08 02:58:46;;;;;;;0.15;0.15;;;;;;;21.27;48.33;100558.06;5163477;27;20038;-34
2022/06/08 03:01:20;;;;;;;0.10;0.10;;;;;;;21.28;48.38;100555.00;5149237;27;20118;-33
2022/06/08 03:03:50;;;;;;;0.20;0.20;;;;;;;21.29;48.30;100555.84;5166696;27;20042;-34
2022/06/08 03:06:21;;;;;;;0.10;0.10;;;;;;;21.29;48.33;100555.84;5167139;27;20042;-34
2022/06/08 03:08:53;;;;;;;0.20;0.20;;;;;;;21.29;48.43;100547.53;5166612;27;20118;-33
2022/06/08 03:11:19;;;;;;;0.20;0.20;;;;;;;21.29;48.34;100547.53;5165990;27;20062;-32
2022/06/08 03:13:51;;;;;;;0.10;0.10;;;;;;;21.28;48.21;100555.00;5167513;27;20042;-32
2022/06/08 03:16:35;;;;;;;0.10;0.10;;;;;;;21.28;48.46;100552.22;5166804;27;20066;-32
2022/06/08 03:19:01;;;;;;;0.10;0.10;;;;;;;21.28;48.36;100557.75;5163940;27;21941;-32
2022/06/08 03:21:27;;;;;;;0.10;0.10;;;;;;;21.28;48.45;100546.69;5166935;27;20057;-33
2022/06/08 03:23:54;;;;;;;0.10;0.10;;;;;;;21.28;48.45;100551.41;5166913;27;20461;-32
2022/06/08 03:26:22;;;;;;;0.10;0.10;;;;;;;21.29;48.24;100556.66;5146551;27;20757;-32
2022/06/08 03:28:48;;;;;;;0.10;0.10;;;;;;;21.28;48.25;100559.72;5130595;27;20133;-32
2022/06/08 03:31:14;;;;;;;0.10;0.10;;;;;;;21.28;48.08;100562.47;5167091;27;20376;-32
2022/06/08 03:33:40;;;;;;;0.10;0.10;;;;;;;21.28;48.43;100560.53;5166049;27;20042;-33
2022/06/08 03:36:06;;;;;;;0.10;0.10;;;;;;;21.27;48.27;100560.84;5166770;27;20081;-32
2022/06/08 03:38:32;;;;;;;0.10;0.10;;;;;;;21.27;48.46;100555.31;5165027;27;20495;-33
2022/06/08 03:40:58;;;;;;;0.10;0.10;;;;;;;21.29;48.26;100561.38;5164173;27;20653;-32
2022/06/08 03:43:24;;;;;;;0.10;0.10;;;;;;;21.28;48.28;100555.00;5154167;27;20038;-32
2022/06/08 03:45:54;;;;;;;0.10;0.10;;;;;;;21.27;48.18;100556.13;5151232;27;20062;-33
2022/06/08 03:48:19;;;;;;;0.10;0.10;;;;;;;21.27;48.35;100558.06;5152010;27;20049;-32
2022/06/08 03:50:49;;;;;;;0.10;0.10;;;;;;;21.27;48.35;100558.88;5154327;27;20043;-32
2022/06/08 03:53:19;;;;;;;0.13;0.13;;;;;;;21.27;48.50;100555.31;5153712;27;20164;-32
2022/06/08 03:55:46;;;;;;;0.10;0.10;;;;;;;21.27;48.53;100549.75;5159938;27;20092;-33
2022/06/08 03:58:11;;;;;;;0.10;0.10;;;;;;;21.27;48.28;100549.75;5153480;27;20066;-33
2022/06/08 04:00:37;;;;;;;0.10;0.10;;;;;;;21.26;48.46;100551.72;5150989;27;20045;-32
2022/06/08 04:03:04;;;;;;;0.10;0.10;;;;;;;21.25;48.25;100549.25;5153540;27;20046;-33
2022/06/08 04:05:30;;;;;;;0.10;0.10;;;;;;;21.27;48.34;100544.22;5154019;27;20492;-32
2022/06/08 04:07:56;;;;;;;0.10;0.10;;;;;;;21.26;48.36;100540.63;5140703;27;20130;-33
2022/06/08 04:10:22;;;;;;;0.10;0.10;;;;;;;21.27;48.23;100541.47;5140353;27;20088;-32
2022/06/08 04:12:47;;;;;;;0.10;0.10;;;;;;;21.26;48.27;100554.47;5139811;27;20084;-33
2022/06/08 04:15:41;;;;;;;0.13;0.13;;;;;;;21.27;48.21;100544.22;5138670;27;20035;-33
2022/06/08 04:17:59;;;;;;;0.10;0.10;;;;;;;21.27;48.57;100549.75;5126963;27;20047;-32
2022/06/08 04:20:25;;;;;;;0.10;0.10;;;;;;;21.27;48.42;100553.34;5139386;27;20078;-34
2022/06/08 04:22:51;;;;;;;0.10;0.10;;;;;;;21.27;48.37;100555.31;5144319;27;20039;-32
2022/06/08 04:25:16;;;;;;;0.10;0.10;;;;;;;21.27;48.33;100552.53;5143401;27;20055;-32
2022/06/08 04:27:42;;;;;;;0.10;0.10;;;;;;;21.26;48.24;100554.47;5139620;27;20509;-32
2022/06/08 04:30:08;;;;;;;0.10;0.10;;;;;;;21.25;48.38;100555.63;5139563;27;20051;-32
2022/06/08 04:32:34;;;;;;;0.10;0.10;;;;;;;21.26;48.44;100550.91;5140003;27;20075;-32
2022/06/08 04:35:00;;;;;;;0.10;0.10;;;;;;;21.26;48.45;100548.13;5141372;27;20047;-33
2022/06/08 04:37:27;;;;;;;0.10;0.10;;;;;;;21.27;48.52;100547.00;5138376;27;20121;-33
2022/06/08 04:39:53;;;;;;;0.10;0.10;;;;;;;21.25;48.33;100533.47;5139441;27;20070;-33
2022/06/08 04:42:22;;;;;;;0.17;0.17;;;;;;;21.25;48.52;100535.41;5139696;27;20051;-33
2022/06/08 04:44:48;;;;;;;0.10;0.10;;;;;;;21.26;48.15;100535.09;5142109;27;20111;-33
2022/06/08 04:47:13;;;;;;;0.10;0.10;;;;;;;21.26;48.64;100537.88;5135243;27;20040;-33
2022/06/08 04:49:39;;;;;;;0.20;0.20;;;;;;;21.27;48.26;100535.91;5139848;27;20043;-33
2022/06/08 04:52:05;;;;;;;0.20;0.20;;;;;;;21.25;48.45;100536.22;5136812;27;20133;-33
2022/06/08 04:54:31;;;;;;;0.10;0.10;;;;;;;21.25;48.41;100529.88;5139131;27;20129;-33
2022/06/08 04:56:57;;;;;;;0.10;0.10;;;;;;;21.26;48.46;100532.31;5119329;27;20082;-33
2022/06/08 04:59:23;;;;;;;0.10;0.10;;;;;;;21.25;48.45;100527.91;5134226;27;20389;-33
2022/06/08 05:01:48;;;;;;;0.10;0.10;;;;;;;21.25;48.32;100529.88;5134810;27;20070;-33
2022/06/08 05:04:14;;;;;;;0.10;0.10;;;;;;;21.25;48.37;100525.16;5134976;27;20100;-33
2022/06/08 05:06:40;;;;;;;0.10;0.10;;;;;;;21.25;48.32;100524.34;5134538;27;20164;-33
2022/06/08 05:09:06;;;;;;;0.10;0.10;;;;;;;21.25;48.39;100519.63;5136746;27;20045;-33
2022/06/08 05:11:31;;;;;;;0.10;0.10;;;;;;;21.25;48.31;100516.03;5136720;27;20533;-32
2022/06/08 05:13:57;;;;;;;0.10;0.10;;;;;;;21.26;48.39;100503.81;5140150;27;20035;-33
2022/06/08 05:16:23;;;;;;;0.10;0.10;;;;;;;21.26;48.46;100509.34;5138116;27;20601;-33
2022/06/08 05:18:49;;;;;;;0.10;0.10;;;;;;;21.25;48.37;100500.22;5139263;27;20046;-33
2022/06/08 05:21:15;;;;;;;0.10;0.10;;;;;;;21.23;48.29;100499.69;5138026;27;20130;-33
2022/06/08 05:23:43;;;;;;;0.10;0.10;;;;;;;21.25;48.39;100503.00;5139406;27;20665;-34
2022/06/08 05:26:10;;;;;;;0.10;0.10;;;;;;;21.25;48.30;100496.63;5135936;27;20039;-33
2022/06/08 05:28:36;;;;;;;0.10;0.10;;;;;;;21.25;48.32;100502.19;5132335;27;20081;-33
2022/06/08 05:31:02;;;;;;;0.10;0.10;;;;;;;21.25;48.39;100502.19;5135495;27;20035;-33
2022/06/08 05:33:28;;;;;;;0.10;0.10;;;;;;;21.25;48.41;100504.94;5113017;27;20111;-33
2022/06/08 05:35:54;;;;;;;0.10;0.10;;;;;;;21.25;48.44;100497.47;5136627;27;20054;-35
2022/06/08 05:38:20;;;;;;;0.10;0.10;;;;;;;21.25;48.33;100488.34;5136800;27;20875;-36
2022/06/08 05:40:45;;;;;;;0.10;0.10;;;;;;;21.25;48.44;100491.09;5133373;27;20054;-36
2022/06/08 05:43:13;;;;;;;0.10;0.10;;;;;;;21.25;48.44;100485.56;5136486;27;20599;-36
2022/06/08 05:45:40;;;;;;;0.10;0.10;;;;;;;21.25;48.23;100485.56;5132086;27;20119;-36
2022/06/08 05:48:06;;;;;;;0.10;0.10;;;;;;;21.25;48.44;100477.25;5133698;27;20085;-36
2022/06/08 05:50:33;;;;;;;0.10;0.10;;;;;;;21.24;48.57;100468.13;5127184;27;20085;-36
2022/06/08 05:52:59;;;;;;;0.10;0.10;;;;;;;21.25;48.39;100466.19;5090155;27;20155;-35
2022/06/08 05:55:26;;;;;;;0.10;0.10;;;;;;;21.24;48.31;100468.13;5130417;27;20047;-36
2022/06/08 05:57:51;;;;;;;0.10;0.10;;;;;;;21.25;48.27;100468.94;5124956;27;20081;-36
2022/06/08 06:00:21;;;;;;;0.10;0.10;;;;;;;21.25;48.32;100461.47;5134597;27;20039;-37
2022/06/08 06:02:47;;;;;;;0.10;0.10;;;;;;;21.24;48.25;100464.50;5110664;27;20043;-35
2022/06/08 06:05:14;;;;;;;0.10;0.10;;;;;;;21.24;48.46;100462.59;5131830;27;20047;-36
2022/06/08 06:07:42;;;;;;;0.10;0.10;;;;;;;21.24;48.37;100462.59;5129737;27;20884;-36
2022/06/08 06:10:09;;;;;;;0.10;0.10;;;;;;;21.24;48.50;100458.97;5130889;27;20394;-36
2022/06/08 06:12:35;;;;;;;0.10;0.10;;;;;;;21.23;48.31;100449.84;5109205;27;20066;-36
2022/06/08 06:15:04;;;;;;;0.10;0.10;;;;;;;21.24;48.55;100457.06;5132858;27;20388;-36
2022/06/08 06:17:30;;;;;;;0.10;0.10;;;;;;;21.24;48.47;100457.06;5128462;27;20531;-36
2022/06/08 06:19:57;;;;;;;0.10;0.10;;;;;;;21.25;48.39;100452.34;5127149;27;20289;-35
2022/06/08 06:22:23;;;;;;;0.10;0.10;;;;;;;21.24;48.53;100456.22;5133750;27;20127;-35
2022/06/08 06:24:48;;;;;;;0.10;0.10;;;;;;;21.24;48.56;100462.59;5133636;27;20043;-35
2022/06/08 06:27:14;;;;;;;0.17;0.17;;;;;;;21.25;48.47;100463.41;5138408;27;20050;-35
2022/06/08 06:29:40;;;;;;;0.10;0.10;;;;;;;21.25;48.49;100457.88;5130837;27;20051;-34
2022/06/08 06:32:10;;;;;;;0.10;0.10;;;;;;;21.24;48.57;100454.28;5135627;27;20702;-35
2022/06/08 06:34:36;;;;;;;0.10;0.10;;;;;;;21.24;48.60;100442.34;5110272;27;20135;-35
2022/06/08 06:37:02;;;;;;;0.10;0.10;;;;;;;21.24;48.56;100448.75;5128039;27;20047;-35
2022/06/08 06:39:27;;;;;;;0.10;0.10;;;;;;;21.25;48.57;100435.72;5124595;27;20458;-36
2022/06/08 06:41:54;;;;;;;0.10;0.10;;;;;;;21.24;48.41;100436.81;5127407;27;20129;-35
2022/06/08 06:44:20;;;;;;;0.10;0.10;;;;;;;21.24;48.48;100439.59;5129481;27;20476;-35
2022/06/08 06:46:46;;;;;;;0.10;0.10;;;;;;;21.25;48.37;100442.06;5136584;27;20054;-35
2022/06/08 06:49:12;;;;;;;0.10;0.10;;;;;;;21.24;48.56;100439.59;5125783;27;20533;-37
2022/06/08 06:51:38;;;;;;;0.10;0.10;;;;;;;21.24;48.48;100447.91;5119501;27;20145;-35
2022/06/08 06:54:05;;;;;;;0.10;0.10;;;;;;;21.24;48.46;100443.22;5128659;27;20070;-35
2022/06/08 06:56:32;;;;;;;0.10;0.10;;;;;;;21.24;48.60;100442.34;5112529;27;20228;-34
2022/06/08 06:58:59;;;;;;;0.10;0.10;;;;;;;21.24;48.51;100440.44;5126067;27;20831;-35
2022/06/08 07:01:25;;;;;;;0.10;0.10;;;;;;;21.23;48.35;100430.47;5104598;27;20188;-35
2022/06/08 07:03:51;;;;;;;0.10;0.10;;;;;;;21.23;48.53;100436.00;5107127;27;20047;-35
2022/06/08 07:06:16;;;;;;;0.10;0.10;;;;;;;21.25;48.52;100427.41;5118058;27;20051;-34
2022/06/08 07:08:42;;;;;;;0.10;0.10;;;;;;;21.24;48.57;100428.50;5120538;27;20669;-36
2022/06/08 07:11:40;;;;;;;0.10;0.10;;;;;;;21.24;48.51;100428.50;5124709;27;20075;-35
2022/06/08 07:13:55;;;;;;;0.10;0.10;;;;;;;21.24;48.53;100426.59;5109472;27;20138;-36
2022/06/08 07:16:21;;;;;;;0.20;0.20;;;;;;;21.24;48.49;100426.59;5120711;27;20153;-35
2022/06/08 07:18:46;;;;;;;0.10;0.10;;;;;;;21.23;48.59;100424.94;5133941;27;20047;-36
2022/06/08 07:21:13;;;;;;;0.10;0.10;;;;;;;21.25;48.35;100424.63;5127950;27;20042;-36
2022/06/08 07:23:40;;;;;;;0.10;0.10;;;;;;;21.24;48.47;100417.44;5129230;27;20447;-34
2022/06/08 07:26:06;;;;;;;0.10;0.10;;;;;;;21.24;48.54;100418.28;5127100;27;20342;-35
2022/06/08 07:28:32;;;;;;;0.10;0.10;;;;;;;21.24;48.39;100422.97;5108998;27;20074;-35
2022/06/08 07:30:58;;;;;;;0.10;0.10;;;;;;;21.24;49.22;100409.97;5110745;27;20054;-36
2022/06/08 07:33:24;;;;;;;0.10;0.10;;;;;;;21.35;49.72;100412.56;5129743;27;20130;-35
2022/06/08 07:35:49;;;;;;;0.10;0.10;;;;;;;21.35;49.55;100412.56;5127469;27;20543;-36
2022/06/08 07:38:19;;;;;;;0.10;0.10;;;;;;;21.34;49.34;100408.97;5126541;27;20049;-35
2022/06/08 07:40:45;;;;;;;0.10;0.10;;;;;;;21.32;49.20;100404.84;5124988;27;20396;-35
2022/06/08 07:43:11;;;;;;;0.10;0.10;;;;;;;21.31;49.18;100401.25;5136120;27;20071;-34
2022/06/08 07:45:36;;;;;;;0.10;0.10;;;;;;;21.30;48.94;100405.97;5136691;27;20078;-35
2022/06/08 07:50:48;;;;;;;0.10;0.10;;;;;;;21.32;49.30;100400.13;5103238;27;20089;-34
2022/06/08 07:53:15;;;;;;;0.10;0.10;;;;;;;21.33;49.01;100398.19;5134105;27;20058;-35
2022/06/08 07:55:41;;;;;;;0.10;0.10;;;;;;;21.33;49.01;100398.19;5129881;27;20047;-35
2022/06/08 07:58:07;;;;;;;0.10;0.10;;;;;;;21.33;48.93;100395.41;5128644;27;20066;-35
2022/06/08 08:00:33;;;;;;;0.10;0.10;;;;;;;21.34;48.89;100400.66;5134088;27;20401;-35
2022/06/08 08:02:59;;;;;;;0.10;0.10;;;;;;;21.35;49.05;100401.47;5129953;27;20043;-35
2022/06/08 08:05:26;;;;;;;0.10;0.10;;;;;;;21.36;48.91;100392.03;5121918;27;20050;-35
2022/06/08 08:07:52;;;;;;;0.10;0.10;;;;;;;21.36;50.21;100392.84;5128860;27;20122;-32
2022/06/08 08:10:21;;;;;;;0.10;0.10;;;;;;;21.36;50.79;100387.31;5124744;27;20415;-35
2022/06/08 08:12:47;;;;;;;0.10;0.10;;;;;;;21.42;50.08;100390.81;5128844;27;20482;-35
2022/06/08 08:15:14;;;;;;;0.10;0.10;;;;;;;21.42;49.77;100397.19;5110496;27;20405;-38
2022/06/08 08:17:41;;;;;;;0.20;0.20;;;;;;;21.43;49.76;100390.50;5103382;27;20094;-38
2022/06/08 08:20:08;;;;;;;0.20;0.20;;;;;;;21.45;49.65;100392.94;5122500;27;20378;-35
2022/06/08 08:22:34;;;;;;;0.10;0.10;;;;;;;21.46;49.39;100391.81;5125845;27;20096;-36
2022/06/08 08:24:59;;;;;;;0.10;0.10;;;;;;;21.49;49.28;100385.66;5110263;27;21183;-39
2022/06/08 08:27:25;;;;;;;0.10;0.10;;;;;;;21.30;54.54;100389.34;5128338;27;20057;-40
2022/06/08 08:29:51;;;;;;;0.10;0.10;;;;;;;21.44;52.61;100381.06;5132733;27;20051;-40
2022/06/08 08:32:17;;;;;;;0.10;0.10;;;;;;;21.52;51.73;100383.09;5127120;27;20401;-40
2022/06/08 08:34:42;;;;;;;0.10;0.10;;;;;;;21.54;51.58;100380.84;5135207;27;20359;-41
2022/06/08 08:37:09;;;;;;;0.10;0.10;;;;;;;21.57;51.00;100370.25;5128369;27;20464;-40
2022/06/08 08:39:35;;;;;;;0.10;0.10;;;;;;;21.58;50.61;100369.13;5126936;27;20074;-40
2022/06/08 08:42:32;;;;;;;0.10;0.10;;;;;;;21.60;50.20;100369.66;5126863;27;20076;-39
2022/06/08 08:44:53;;;;;;;0.10;0.10;;;;;;;21.62;50.23;100370.16;5110002;27;20368;-40
2022/06/08 08:47:40;;;;;;;0.10;0.10;;;;;;;21.63;50.27;100369.00;5123183;27;20141;-40
2022/06/08 08:50:25;;;;;;;0.10;0.10;;;;;;;21.64;50.03;100356.81;5119963;27;20305;-40
2022/06/08 08:53:01;;;;;;;0.10;0.10;;;;;;;21.65;49.93;100355.69;5127115;27;20129;-40
2022/06/08 08:55:48;;;;;;;0.10;0.10;;;;;;;21.67;49.90;100353.41;5130966;27;20445;-39
2022/06/08 08:58:26;;;;;;;0.10;0.10;;;;;;;21.67;49.64;100356.19;5110968;27;20784;-42
2022/06/08 09:00:55;;;;;;;0.10;0.10;;;;;;;21.69;49.67;100348.38;5129444;27;20085;-40
2022/06/08 09:03:39;;;;;;;0.10;0.10;;;;;;;21.70;49.61;100355.56;5114216;27;20141;-40
2022/06/08 09:06:17;;;;;;;0.10;0.10;;;;;;;21.70;49.58;100341.72;5129084;27;20115;-40
2022/06/08 09:08:47;;;;;;;0.10;0.10;;;;;;;21.72;49.33;100348.59;5112611;27;20058;-41
2022/06/08 09:11:17;;;;;;;0.10;0.10;;;;;;;21.72;49.27;100342.22;5127835;27;20050;-40
2022/06/08 09:13:55;;;;;;;0.10;0.10;;;;;;;21.74;49.40;100346.31;5130722;27;20470;-41
2022/06/08 09:16:25;;;;;;;;;;;;;;;21.75;49.10;100341.59;5132696;27;20074;-41
2022/06/08 09:18:51;;;;;;;0.10;0.10;;;;;;;21.74;49.07;100340.75;5127764;27;20379;-40
2022/06/08 09:21:35;;;;;;;0.10;0.10;;;;;;;21.75;48.96;100334.09;5133047;27;20047;-41
2022/06/08 09:24:08;;;;;;;0.10;0.10;;;;;;;21.77;49.03;100336.56;5125219;27;20074;-38
2022/06/08 09:26:39;;;;;;;0.20;0.20;;;;;;;21.78;48.96;100335.44;5129078;27;20132;-38
2022/06/08 09:29:26;;;;;;;0.10;0.10;;;;;;;21.78;48.95;100330.69;5134727;27;20437;-39
2022/06/08 09:31:52;;;;;;;0.10;0.10;;;;;;;21.80;49.09;100313.75;5133430;27;20090;-38
2022/06/08 09:34:26;;;;;;;0.10;0.10;;;;;;;21.79;49.01;100324.00;5128487;27;20307;-39
2022/06/08 09:37:13;;;;;;;0.10;0.10;;;;;;;21.82;48.85;100319.00;5100456;27;20138;-39
2022/06/08 09:39:41;;;;;;;0.10;0.10;;;;;;;21.82;48.85;100325.34;5100367;27;20292;-38
2022/06/08 09:42:34;;;;;;;0.10;0.10;;;;;;;21.82;48.77;100319.81;5124158;27;20090;-39
2022/06/08 09:45:37;;;;;;;0.10;0.10;;;;;;;21.82;48.86;100319.00;5111435;27;20179;-39
2022/06/08 09:51:25;;;;;;;0.10;0.10;;;;;;;21.81;48.87;100312.63;5110794;27;20130;-40
2022/06/08 09:54:21;;;;;;;0.10;0.10;;;;;;;21.79;48.86;100301.84;5128959;27;20133;-38
2022/06/08 10:00:16;;;;;;;0.10;0.10;;;;;;;21.81;48.93;100303.50;5154779;27;20689;-41
2022/06/08 10:03:22;;;;;;;0.10;0.10;;;;;;;21.80;48.85;100310.97;5122610;27;20138;-41
2022/06/08 10:06:03;;;;;;;0.10;0.10;;;;;;;21.49;52.15;100308.91;5105258;27;20466;-40
2022/06/08 10:08:46;;;;;;;0.10;0.10;;;;;;;21.70;51.15;100314.00;5116194;27;20454;-39
2022/06/08 10:16:55;;;;;;;0.10;0.10;;;;;;;21.81;49.91;100312.63;5152593;27;20221;-41
2022/06/08 10:19:27;;;;;;;0.10;0.10;;;;;;;21.82;49.48;100319.81;5149067;27;20081;-40
2022/06/08 10:21:52;;;;;;;0.10;0.10;;;;;;;21.84;49.58;100323.06;5136521;27;20521;-40
2022/06/08 10:24:25;;;;;;;0.10;0.10;;;;;;;21.84;49.56;100325.84;5150083;27;20054;-40
2022/06/08 10:26:57;;;;;;;0.10;0.10;;;;;;;21.86;49.41;100353.28;5151822;27;20085;-40
2022/06/08 10:29:33;;;;;;;0.10;0.10;;;;;;;21.87;49.38;100383.44;5136179;27;20053;-42
2022/06/08 10:32:21;;;;;;;0.10;0.10;;;;;;;21.88;49.14;100373.97;5146898;27;20263;-40
2022/06/08 10:34:53;;;;;;;0.10;0.10;;;;;;;21.89;48.94;100358.16;5133169;27;20050;-41
2022/06/08 10:37:30;;;;;;;0.10;0.10;;;;;;;21.88;49.19;100357.34;5131038;27;20070;-40
2022/06/08 10:39:55;;;;;;;0.10;0.10;;;;;;;21.89;49.12;100355.41;5146346;27;20074;-40
2022/06/08 10:42:40;;;;;;;0.10;0.10;;;;;;;21.90;49.02;100357.88;5150363;27;20095;-41
2022/06/08 10:48:02;;;;;;;0.10;0.10;;;;;;;21.91;49.07;100344.81;5148670;27;20217;-38
2022/06/08 10:50:38;;;;;;;0.10;0.10;;;;;;;21.93;48.82;100345.31;5151777;27;20070;-39
2022/06/08 10:56:27;;;;;;;0.10;0.10;;;;;;;21.93;48.87;100337.81;5128478;27;20649;-41
2022/06/08 10:58:55;;;;;;;0.10;0.10;;;;;;;21.94;48.94;100341.44;5129138;27;20063;-42
2022/06/08 11:01:30;;;;;;;0.10;0.10;;;;;;;21.96;48.97;100333.63;5123883;27;21177;-44
2022/06/08 11:03:57;;;;;;;0.10;0.10;;;;;;;21.94;49.02;100336.72;5128438;27;20062;-43
2022/06/08 11:14:56;;;;;;;0.10;0.10;;;;;;;21.97;49.07;100351.88;5150656;27;20217;-39
2022/06/08 11:17:27;;;;;;;0.10;0.10;;;;;;;21.96;49.10;100366.88;5150188;27;20257;-41
2022/06/08 11:19:57;;;;;;;0.10;0.10;;;;;;;21.95;49.15;100363.28;5147662;27;20687;-41
2022/06/08 11:22:29;;;;;;;0.10;0.10;;;;;;;21.96;49.04;100375.19;5145998;27;20084;-42
2022/06/08 11:24:58;;;;;;;0.10;0.10;;;;;;;21.96;49.18;100366.88;5147669;27;20051;-42
2022/06/08 11:27:32;;;;;;;0.10;0.10;;;;;;;21.95;49.06;100360.53;5144548;27;20125;-41
2022/06/08 11:30:02;;;;;;;0.10;0.10;;;;;;;21.94;49.18;100353.34;5123634;27;20122;-41
2022/06/08 11:35:37;;;;;;;0.10;0.10;;;;;;;21.94;49.18;100350.56;5157490;27;20128;-38
2022/06/08 11:38:16;;;;;;;0.10;0.10;;;;;;;21.94;49.13;100355.31;5128977;27;20390;-38
2022/06/08 11:40:42;;;;;;;0.10;0.10;;;;;;;21.94;49.25;100342.25;5147808;27;20086;-38
2022/06/08 11:43:26;;;;;;;0.10;0.10;;;;;;;21.95;49.21;100337.53;5117966;27;20101;-39
2022/06/08 11:45:55;;;;;;;0.10;0.10;;;;;;;21.93;49.24;100335.03;5115675;27;20074;-37
2022/06/08 11:48:26;;;;;;;0.10;0.10;;;;;;;21.93;49.23;100334.22;5137422;27;20130;-38
2022/06/08 11:50:54;;;;;;;0.10;0.10;;;;;;;21.94;49.17;100338.66;5135806;27;20082;-39
2022/06/08 11:53:28;;;;;;;;;;;;;;;21.92;49.32;100336.19;5137108;27;20078;-41
2022/06/08 11:56:20;;;;;;;0.10;0.10;;;;;;;21.91;49.39;100342.06;5135002;27;20433;-41
2022/06/08 11:58:48;;;;;;;0.10;0.10;;;;;;;21.91;49.43;100333.75;5136359;27;20077;-41
2022/06/08 12:01:17;;;;;;;0.10;0.10;;;;;;;21.91;49.37;100336.50;5138768;27;20134;-41
2022/06/08 12:03:46;;;;;;;0.10;0.10;;;;;;;21.90;49.32;100326.56;5137477;27;20133;-40
2022/06/08 12:09:16;;;;;;;0.10;0.10;;;;;;;21.90;49.29;100326.56;5155414;27;20117;-33
2022/06/08 12:11:45;;;;;;;0.10;0.10;;;;;;;21.89;49.43;100324.91;5115447;27;20725;-32
2022/06/08 12:14:34;;;;;;;0.10;0.10;;;;;;;21.89;49.45;100327.66;5133435;27;20134;-31
2022/06/08 12:19:57;;;;;;;0.10;0.10;;;;;;;21.87;49.41;100316.91;5157338;27;20212;-38
2022/06/08 12:22:29;;;;;;;0.10;0.10;;;;;;;21.87;49.39;100316.91;5150111;27;20075;-38
2022/06/08 12:25:21;;;;;;;0.10;0.10;;;;;;;21.87;49.45;100316.09;5155296;27;20057;-37
2022/06/08 12:33:26;;;;;;;0.10;0.10;;;;;;;21.87;49.53;100310.56;5147054;27;20210;-39
2022/06/08 12:38:32;;;;;;;0.10;0.10;;;;;;;21.84;49.69;100313.94;5156025;27;20233;-38
2022/06/08 12:41:07;;;;;;;0.10;0.10;;;;;;;21.84;49.64;100311.16;5131917;27;20086;-39
2022/06/08 12:43:39;;;;;;;0.10;0.10;;;;;;;21.84;49.52;100311.16;5128480;27;20046;-38